Time;durP1;ratioP1;P1;durP2;ratioP2;P2;SDS_P1;SDS_P2;PMS_P1;PMS_P2;Temp;Humidity;BMP_temperature;BMP_pressure;BME280_temperature;BME280_humidity;BME280_pressure;Samples;Min_cycle;Max_cycle;Signal;HPM_P1;HPM_P2
2022/02/09 09:58:27;;;;;;;1.50;1.40;;;;;;;11.02;70.82;100099.50;5152457;27;41326;-82
2022/02/09 10:03:58;;;;;;;1.70;1.60;;;;;;;11.33;69.85;100106.09;5158799;27;42067;-84
2022/02/09 10:32:27;;;;;;;1.83;1.53;;;;;;;12.25;65.68;100090.16;5052721;28;42319;-90
2022/02/09 10:35:08;;;;;;;2.07;1.80;;;;;;;12.47;65.00;100084.66;5068353;28;41288;-89
2022/02/09 10:37:36;;;;;;;3.07;2.00;;;;;;;12.60;64.72;100075.13;5107221;27;43404;-84
2022/02/09 10:40:11;;;;;;;2.07;1.37;;;;;;;12.63;64.61;100059.00;5131053;27;41888;-86
2022/02/09 10:42:46;;;;;;;1.90;1.20;;;;;;;12.92;63.83;100076.09;5130986;27;41262;-87
2022/02/09 10:45:30;;;;;;;2.30;1.80;;;;;;;13.00;63.62;100065.91;5150210;27;40085;-87
2022/02/09 10:47:58;;;;;;;1.40;1.30;;;;;;;13.07;62.66;100069.97;5118510;27;41191;-86
2022/02/09 10:50:28;;;;;;;3.47;1.40;;;;;;;13.04;62.23;100056.84;5100460;27;43296;-88
2022/02/09 10:52:59;;;;;;;1.47;1.37;;;;;;;13.04;62.20;100064.81;5101003;27;42507;-86
2022/02/09 10:55:31;;;;;;;3.43;1.70;;;;;;;13.04;62.18;100064.81;5143272;27;38945;-86
2022/02/09 10:58:01;;;;;;;3.63;1.53;;;;;;;13.08;62.54;100066.38;5121562;27;40606;-88
2022/02/09 11:00:29;;;;;;;4.37;1.67;;;;;;;13.10;62.71;100055.66;5141512;27;43188;-88
2022/02/09 11:02:57;;;;;;;1.73;1.40;;;;;;;13.12;62.54;100043.09;5141302;27;41502;-85
2022/02/09 11:05:25;;;;;;;1.57;1.47;;;;;;;13.22;63.12;100057.69;5140784;27;39054;-85
2022/02/09 11:07:54;;;;;;;2.33;1.57;;;;;;;13.14;61.74;100050.09;5157380;27;42845;-87
2022/02/09 11:10:22;;;;;;;1.20;1.10;;;;;;;13.25;62.58;100052.19;5141562;27;42797;-84
2022/02/09 11:12:52;;;;;;;1.67;1.37;;;;;;;13.32;62.41;100042.09;5158232;27;41991;-84
2022/02/09 11:15:22;;;;;;;1.50;1.40;;;;;;;13.37;61.88;100042.66;5155340;27;38946;-87
2022/02/09 11:17:51;;;;;;;2.10;1.60;;;;;;;13.33;61.08;100028.69;5119998;27;41809;-84
2022/02/09 11:20:24;;;;;;;1.67;1.57;;;;;;;13.66;61.72;100036.59;5120032;27;43106;-85
2022/02/09 11:22:54;;;;;;;2.43;1.70;;;;;;;13.91;60.32;100039.59;5120060;27;41207;-84
2022/02/09 11:25:28;;;;;;;2.00;1.40;;;;;;;13.95;59.69;100011.84;5148202;27;40977;-85
2022/02/09 11:28:28;;;;;;;1.60;1.50;;;;;;;14.22;59.06;100046.63;5120416;27;41236;-85
2022/02/09 11:31:08;;;;;;;1.77;1.33;;;;;;;14.20;59.21;100043.22;5102785;27;43220;-85
2022/02/09 11:34:17;;;;;;;1.87;1.67;;;;;;;14.31;58.86;100040.78;5099970;27;42137;-87
2022/02/09 11:36:55;;;;;;;1.87;1.27;;;;;;;14.43;58.35;100028.59;5118945;27;40470;-84
2022/02/09 11:39:45;;;;;;;1.27;1.10;;;;;;;14.66;57.22;100033.38;5118160;27;40684;-84
2022/02/09 11:42:27;;;;;;;1.53;1.40;;;;;;;15.61;56.38;100039.00;5100361;27;43177;-86
2022/02/09 11:45:01;;;;;;;2.13;1.30;;;;;;;15.80;55.42;100026.19;5099344;27;44358;-87
2022/02/09 12:10:20;;;;;;;0.90;0.90;;;;;;;20.87;45.69;100070.06;5119870;27;39412;-83
2022/02/09 12:13:03;;;;;;;1.00;0.90;;;;;;;20.93;44.34;100031.81;5119377;27;42108;-84
2022/02/09 12:16:30;;;;;;;1.17;1.00;;;;;;;23.33;40.18;100092.63;5152369;27;44394;-85
2022/02/09 12:18:55;;;;;;;1.47;1.00;;;;;;;22.30;38.89;100085.16;5118541;27;42711;-88
2022/02/09 12:21:38;;;;;;;1.20;0.97;;;;;;;22.19;40.06;100087.97;5119765;27;38743;-87
2022/02/09 12:24:25;;;;;;;1.47;1.00;;;;;;;23.50;38.08;100081.88;5129910;27;41040;-88
2022/02/09 12:26:58;;;;;;;1.90;1.00;;;;;;;24.29;37.51;100098.44;5139903;27;41637;-85
2022/02/09 12:29:31;;;;;;;1.27;1.20;;;;;;;26.50;34.38;100107.84;5157008;27;42298;-87
2022/02/09 12:31:59;;;;;;;0.97;0.97;;;;;;;25.09;35.04;100082.25;5156659;27;38925;-85
2022/02/09 12:34:30;;;;;;;1.30;1.20;;;;;;;26.04;35.15;100087.50;5125852;27;41883;-85
2022/02/09 12:37:11;;;;;;;1.40;1.30;;;;;;;28.42;31.67;100102.38;5119779;27;43089;-88
2022/02/09 12:39:47;;;;;;;1.63;1.47;;;;;;;30.58;29.71;100097.69;5133766;27;41169;-87
2022/02/09 12:42:15;;;;;;;1.23;1.00;;;;;;;32.38;26.66;100110.59;5140500;27;38871;-87
2022/02/09 12:45:04;;;;;;;1.20;1.10;;;;;;;33.20;24.30;100096.56;5122486;27;43938;-83
2022/02/09 12:47:33;;;;;;;1.30;1.07;;;;;;;32.63;24.95;100092.50;5115772;27;44422;-85
2022/02/09 12:50:03;;;;;;;1.13;1.10;;;;;;;33.55;24.92;100094.41;5098384;27;42499;-85
2022/02/09 12:52:35;;;;;;;1.05;1.00;;;;;;;34.33;23.13;100081.50;5118626;27;38826;-87
2022/02/09 12:55:09;;;;;;;1.17;1.10;;;;;;;34.65;23.51;100089.75;5137294;27;40942;-88
2022/02/09 12:57:39;;;;;;;1.20;1.10;;;;;;;35.08;22.89;100071.44;5137872;27;42987;-88
2022/02/09 13:00:09;;;;;;;1.17;1.08;;;;;;;35.71;22.03;100079.53;5118765;27;42823;-85
2022/02/09 13:02:44;;;;;;;1.20;0.82;;;;;;;36.13;20.97;100086.00;5117570;27;41409;-86
2022/02/09 13:05:12;;;;;;;0.90;0.90;;;;;;;36.14;20.43;100057.34;5118481;27;40621;-87
2022/02/09 13:07:40;;;;;;;1.35;1.25;;;;;;;36.45;21.14;100056.31;5118460;27;43024;-86
2022/02/09 13:10:09;;;;;;;1.02;1.00;;;;;;;36.75;20.78;100048.00;5118412;27;41341;-89
2022/02/09 13:12:42;;;;;;;1.60;0.80;;;;;;;36.92;20.58;100048.16;5118928;27;38907;-89
2022/02/09 13:15:17;;;;;;;1.02;0.70;;;;;;;36.49;20.90;100032.66;5132720;27;42521;-88
2022/02/09 13:18:14;;;;;;;0.80;0.80;;;;;;;34.18;22.51;100032.25;5119075;27;41748;-86
2022/02/09 13:21:35;;;;;;;0.90;0.90;;;;;;;32.15;24.21;100025.88;5133120;27;42910;-86
2022/02/09 13:24:12;;;;;;;0.97;0.97;;;;;;;31.45;24.22;100002.41;5109580;27;39240;-85
2022/02/09 14:11:45;;;;;;;0.90;0.90;;;;;;;20.44;39.06;99880.81;5118228;27;41265;-86
2022/02/09 14:17:16;;;;;;;1.40;1.10;;;;;;;20.09;39.60;99864.13;5117903;27;42624;-83
2022/02/09 14:34:48;;;;;;;1.07;0.90;;;;;;;18.16;43.41;99845.13;5127654;27;41120;-83
2022/02/09 14:53:58;;;;;;;0.83;0.83;;;;;;;17.36;46.20;99828.88;5099958;27;39273;-87
2022/02/09 14:56:39;;;;;;;1.40;0.97;;;;;;;17.24;46.81;99825.28;5141973;27;41017;-86
2022/02/09 14:59:09;;;;;;;1.20;1.10;;;;;;;17.02;46.72;99805.59;5141328;27;41799;-84
2022/02/09 15:01:43;;;;;;;1.30;0.90;;;;;;;16.81;47.11;99805.38;5159132;27;42820;-87
2022/02/09 15:04:27;;;;;;;1.70;0.93;;;;;;;16.71;47.62;99799.81;5141501;27;38970;-87
2022/02/09 15:07:21;;;;;;;1.87;1.07;;;;;;;16.63;48.14;99802.19;5158042;27;40964;-86
2022/02/09 15:09:53;;;;;;;1.20;1.10;;;;;;;16.37;48.08;99790.66;5141094;27;41654;-89
2022/02/09 15:12:26;;;;;;;0.83;0.80;;;;;;;16.26;48.55;99792.38;5159024;27;41372;-87
2022/02/09 15:15:12;;;;;;;1.57;1.47;;;;;;;16.15;49.72;99791.34;5140803;27;39694;-86
2022/02/09 15:18:10;;;;;;;1.30;1.20;;;;;;;16.03;49.52;99797.53;5120478;27;43192;-86
2022/02/09 15:20:46;;;;;;;1.13;1.00;;;;;;;15.88;49.95;99779.91;5120719;27;41690;-83
2022/02/09 15:23:16;;;;;;;1.20;1.10;;;;;;;15.77;50.26;99772.63;5122478;27;41937;-85
2022/02/09 15:25:43;;;;;;;1.10;0.90;;;;;;;15.61;50.53;99757.75;5141405;27;40552;-83
2022/02/09 15:28:12;;;;;;;1.10;0.97;;;;;;;15.40;50.66;99744.03;5157849;27;41898;-87
2022/02/09 15:30:47;;;;;;;1.13;0.90;;;;;;;15.52;50.57;99787.75;5141007;27;41980;-86
2022/02/09 15:33:21;;;;;;;1.60;1.10;;;;;;;15.31;51.92;99776.72;5153244;27;42564;-90
2022/02/09 15:35:55;;;;;;;1.10;1.00;;;;;;;15.02;52.86;99779.50;5120487;27;38862;-87
2022/02/09 15:38:28;;;;;;;1.50;1.40;;;;;;;14.81;53.24;99769.38;5124138;27;40318;-84
2022/02/09 15:41:06;;;;;;;1.00;1.00;;;;;;;14.59;53.44;99776.09;5141073;27;41629;-86
2022/02/09 16:05:43;;;;;;;1.17;1.10;;;;;;;13.81;55.99;99769.47;5144340;27;42147;-85
2022/02/09 16:11:22;;;;;;;1.40;0.90;;;;;;;13.64;57.11;99745.66;5083163;27;42230;-84
2022/02/09 16:22:12;;;;;;;1.30;0.97;;;;;;;13.02;57.64;99752.91;5099337;27;40245;-86
2022/02/09 16:25:13;;;;;;;1.57;1.03;;;;;;;12.86;58.32;99746.75;5098455;27;42005;-86
2022/02/09 16:33:16;;;;;;;2.90;1.20;;;;;;;12.21;58.55;99728.28;5138066;27;41781;-87
2022/02/09 16:44:23;;;;;;;1.37;0.90;;;;;;;11.61;59.42;99737.72;5036305;28;40704;-88
2022/02/09 16:47:04;;;;;;;0.90;0.90;;;;;;;11.47;59.62;99735.78;5076500;27;41500;-84
2022/02/09 16:49:32;;;;;;;1.23;1.13;;;;;;;11.34;59.62;99733.84;5114581;27;41346;-85
2022/02/09 16:52:04;;;;;;;2.43;1.30;;;;;;;11.13;59.78;99726.03;5098689;27;39025;-84
2022/02/09 16:54:41;;;;;;;0.70;0.70;;;;;;;11.18;60.35;99748.81;5125841;27;40645;-85
2022/02/09 17:08:24;;;;;;;1.73;1.37;;;;;;;11.06;60.38;99756.47;5156828;27;41688;-82
2022/02/09 17:11:13;;;;;;;2.63;1.60;;;;;;;10.58;63.39;99745.63;5149257;27;43676;-84
2022/02/09 17:19:40;;;;;;;1.47;1.37;;;;;;;10.14;63.83;99732.66;5129937;27;41637;-84
2022/02/09 17:22:09;;;;;;;3.03;1.80;;;;;;;10.10;64.01;99747.00;5137062;27;42239;-85
2022/02/09 17:24:37;;;;;;;2.57;1.53;;;;;;;10.00;63.76;99746.56;5160504;27;39112;-84
2022/02/09 17:27:08;;;;;;;1.20;1.10;;;;;;;9.93;63.94;99739.81;5113556;27;40603;-85
2022/02/09 17:29:52;;;;;;;3.03;1.57;;;;;;;9.97;64.74;99745.84;5123277;27;41910;-84
2022/02/09 17:32:31;;;;;;;2.57;1.70;;;;;;;9.86;64.40;99753.41;5140589;27;41322;-84
2022/02/09 17:35:03;;;;;;;2.00;1.60;;;;;;;9.80;64.68;99758.97;5127595;27;39567;-85
2022/02/09 17:54:45;;;;;;;1.20;1.10;;;;;;;9.28;67.21;99748.03;5118984;27;42492;-90
2022/02/09 17:57:07;;;;;;;2.83;1.90;;;;;;;9.21;67.92;99743.94;5125323;27;38698;-85
2022/02/09 17:59:43;;;;;;;3.23;1.70;;;;;;;9.14;67.65;99745.13;5118920;27;42044;-84
2022/02/09 18:02:12;;;;;;;1.57;1.20;;;;;;;9.18;67.40;99758.13;5133650;27;41893;-82
2022/02/09 18:04:44;;;;;;;1.77;1.20;;;;;;;8.99;67.63;99733.41;5134750;27;43092;-82
2022/02/09 18:07:16;;;;;;;1.67;1.23;;;;;;;9.07;67.72;99756.88;5131692;27;40482;-83
2022/02/09 18:09:49;;;;;;;1.50;1.37;;;;;;;8.97;67.59;99757.25;5115746;27;41719;-83
2022/02/09 18:12:24;;;;;;;3.23;1.13;;;;;;;8.88;67.78;99749.72;5124125;27;41892;-84
2022/02/09 18:15:26;;;;;;;1.60;1.50;;;;;;;8.73;68.06;99731.00;5122800;27;41224;-85
2022/02/09 18:29:11;;;;;;;3.40;2.40;;;;;;;8.58;68.33;99753.59;5122452;27;40703;-87
2022/02/09 18:31:45;;;;;;;4.17;1.87;;;;;;;8.53;68.62;99745.03;5129270;27;42837;-82
2022/02/09 18:34:46;;;;;;;3.10;2.10;;;;;;;8.50;68.48;99755.69;5127370;27;42726;-84
2022/02/09 18:45:31;;;;;;;2.63;2.37;;;;;;;8.08;68.66;99747.63;5107860;27;43203;-84
2022/02/09 18:59:29;;;;;;;4.30;2.83;;;;;;;7.81;69.65;99758.28;5051247;28;41219;-84
2022/02/09 19:02:32;;;;;;;4.67;2.60;;;;;;;7.71;69.67;99748.13;5038586;28;38865;-84
2022/02/09 19:05:17;;;;;;;3.43;2.60;;;;;;;7.68;70.33;99753.50;5106302;27;40776;-84
2022/02/09 19:19:03;;;;;;;5.70;2.83;;;;;;;7.31;70.11;99757.47;5147361;27;44163;-82
2022/02/09 19:27:31;;;;;;;5.47;3.47;;;;;;;7.02;71.04;99737.41;5120548;27;40636;-85
2022/02/09 19:30:03;;;;;;;6.40;4.30;;;;;;;6.97;70.99;99734.06;5141441;27;43633;-82
2022/02/09 19:41:26;;;;;;;4.70;2.93;;;;;;;6.94;72.31;99739.41;5135389;27;41704;-85
2022/02/09 19:46:41;;;;;;;5.07;2.73;;;;;;;6.79;73.03;99717.13;5140555;27;38871;-83
2022/02/09 19:49:15;;;;;;;6.80;2.80;;;;;;;6.78;72.83;99732.97;5151988;27;41076;-85
2022/02/09 19:51:46;;;;;;;4.93;2.40;;;;;;;6.63;72.73;99718.53;5114399;27;41605;-82
2022/02/09 19:54:37;;;;;;;3.63;2.60;;;;;;;6.72;72.88;99736.66;5116210;27;41434;-85
2022/02/09 19:57:05;;;;;;;4.47;3.07;;;;;;;6.57;72.46;99729.25;5115209;27;39179;-84
2022/02/09 19:59:35;;;;;;;4.70;3.23;;;;;;;6.50;72.34;99727.72;5127823;27;40679;-84
2022/02/09 20:02:06;;;;;;;5.87;3.50;;;;;;;6.30;72.41;99703.84;5140298;27;41950;-84
2022/02/09 20:04:34;;;;;;;5.37;3.53;;;;;;;6.35;72.62;99720.31;5133422;27;41432;-86
2022/02/09 20:07:02;;;;;;;5.67;3.27;;;;;;;6.34;72.53;99721.22;5122570;27;39281;-84
2022/02/09 20:09:29;;;;;;;4.97;3.50;;;;;;;6.38;72.11;99741.28;5130368;27;41100;-86
2022/02/09 20:11:57;;;;;;;6.90;4.40;;;;;;;6.22;72.15;99721.59;5122238;27;42997;-84
2022/02/09 20:14:26;;;;;;;7.80;4.13;;;;;;;6.17;72.42;99713.88;5132009;27;41032;-86
2022/02/09 20:16:54;;;;;;;5.37;3.63;;;;;;;6.09;72.49;99710.59;5138878;27;38763;-84
2022/02/09 20:19:21;;;;;;;6.80;4.10;;;;;;;6.07;72.95;99713.28;5121986;27;41156;-87
2022/02/09 20:21:50;;;;;;;8.17;5.40;;;;;;;6.03;72.77;99706.41;5136353;27;42750;-87
2022/02/09 20:24:18;;;;;;;6.03;3.60;;;;;;;6.07;72.53;99721.16;5131455;27;42293;-84
2022/02/09 20:26:46;;;;;;;7.97;3.83;;;;;;;6.02;72.56;99722.22;5135901;27;38979;-86
2022/02/09 20:29:18;;;;;;;9.27;4.07;;;;;;;5.98;73.62;99718.81;5133396;27;41224;-88
2022/02/09 20:31:52;;;;;;;9.63;5.80;;;;;;;5.83;73.43;99702.59;5127047;27;41566;-89
2022/02/09 20:34:26;;;;;;;10.70;6.17;;;;;;;5.84;73.39;99713.06;5140618;27;41607;-82
2022/02/09 20:36:54;;;;;;;8.33;4.77;;;;;;;5.84;74.17;99715.69;5130592;27;38155;-85
2022/02/09 20:39:26;;;;;;;8.00;4.83;;;;;;;5.80;74.19;99716.72;5147949;27;41954;-84
2022/02/09 20:41:56;;;;;;;13.20;7.10;;;;;;;5.73;74.36;99709.91;5121692;27;43144;-85
2022/02/09 20:44:29;;;;;;;8.60;4.90;;;;;;;5.72;74.44;99710.81;5102486;27;41105;-84
2022/02/09 20:46:59;;;;;;;10.33;5.70;;;;;;;5.69;74.37;99716.16;5126165;27;38594;-85
2022/02/09 20:49:27;;;;;;;11.20;5.27;;;;;;;5.53;74.39;99699.97;5152580;27;42777;-87
2022/02/09 20:51:55;;;;;;;8.43;5.33;;;;;;;5.56;74.21;99720.06;5126604;27;42045;-85
2022/02/09 20:54:22;;;;;;;9.07;5.17;;;;;;;5.47;74.23;99707.16;5139954;27;42930;-86
2022/02/09 20:56:50;;;;;;;10.10;6.47;;;;;;;5.44;74.05;99705.47;5127893;27;38856;-84
2022/02/09 20:59:18;;;;;;;8.00;4.67;;;;;;;5.50;74.24;99720.22;5149039;27;42115;-83
2022/02/09 21:01:54;;;;;;;6.63;4.07;;;;;;;5.38;74.02;99711.78;5114789;27;41731;-83
2022/02/09 21:04:26;;;;;;;10.33;4.10;;;;;;;5.19;74.17;99686.94;5130287;27;42055;-83
2022/02/09 21:07:04;;;;;;;6.17;3.83;;;;;;;5.25;74.24;99694.63;5139964;27;38991;-83
2022/02/09 21:09:39;;;;;;;4.63;3.57;;;;;;;5.29;74.30;99708.56;5123980;27;42075;-82
2022/02/09 21:12:19;;;;;;;6.37;3.57;;;;;;;5.18;74.14;99697.47;5152042;27;43134;-82
2022/02/09 21:18:11;;;;;;;7.50;4.57;;;;;;;5.11;74.59;99699.41;5031581;28;38983;-85
2022/02/09 21:23:43;;;;;;;4.77;3.67;;;;;;;5.00;74.48;99704.06;5118562;27;44345;-84
2022/02/09 21:54:17;;;;;;;6.07;3.13;;;;;;;4.54;74.55;99686.91;5190648;27;43651;-86
2022/02/09 21:56:48;;;;;;;3.37;2.67;;;;;;;4.52;74.96;99675.56;5173226;27;42442;-86
2022/02/09 22:21:19;;;;;;;5.57;3.37;;;;;;;4.26;74.97;99673.59;5173652;27;39900;-82
2022/02/09 22:32:41;;;;;;;4.97;3.30;;;;;;;4.07;75.72;99663.59;5137963;27;38608;-84
2022/02/09 22:46:28;;;;;;;9.57;5.87;;;;;;;3.93;76.14;99649.03;5160574;27;40711;-84
2022/02/09 22:49:05;;;;;;;4.27;3.27;;;;;;;3.87;76.13;99641.31;5159024;27;42006;-84
2022/02/09 22:54:30;;;;;;;8.20;3.60;;;;;;;3.92;75.94;99651.69;5159046;27;40194;-85
2022/02/09 22:56:59;;;;;;;9.23;5.10;;;;;;;3.79;76.26;99630.16;5159294;27;40678;-85
2022/02/09 22:59:32;;;;;;;4.97;3.57;;;;;;;3.87;76.07;99649.16;5158863;27;43051;-83
2022/02/09 23:02:03;;;;;;;5.17;3.63;;;;;;;3.85;76.20;99647.47;5153255;27;42538;-85
2022/02/09 23:04:40;;;;;;;4.97;3.57;;;;;;;3.81;76.42;99636.22;5190669;27;39956;-83
2022/02/09 23:07:18;;;;;;;9.47;4.47;;;;;;;3.76;76.12;99634.59;5138398;27;41297;-84
2022/02/09 23:09:57;;;;;;;5.43;3.67;;;;;;;3.67;76.17;99619.94;5138048;27;43315;-83
2022/02/09 23:12:34;;;;;;;7.33;4.27;;;;;;;3.74;76.25;99645.09;5173169;27;42365;-84
2022/02/09 23:18:22;;;;;;;5.10;3.30;;;;;;;3.49;76.42;99609.84;5112063;27;42038;-82
2022/02/09 23:21:20;;;;;;;6.97;4.30;;;;;;;3.64;76.27;99640.09;5137808;27;41933;-83
2022/02/09 23:24:07;;;;;;;8.57;3.97;;;;;;;3.58;76.19;99633.25;5137934;27;41464;-83
